createdAt,value
2019-02-26T00:01:30.843Z,27.30
2019-02-26T00:04:25.467Z,27.30
2019-02-26T00:07:18.830Z,27.30
2019-02-26T00:10:11.519Z,27.30
2019-02-26T00:13:03.964Z,27.30
2019-02-26T00:15:56.491Z,27.30
2019-02-26T00:18:49.022Z,27.30
2019-02-26T00:21:43.002Z,27.30
2019-02-26T00:24:37.760Z,27.30
2019-02-26T00:27:30.611Z,27.30
2019-02-26T00:30:22.889Z,27.30
2019-02-26T00:33:16.805Z,27.30
2019-02-26T00:36:10.755Z,27.30
2019-02-26T00:39:04.957Z,27.30
2019-02-26T00:41:58.833Z,27.30
2019-02-26T00:44:53.641Z,27.30
2019-02-26T00:47:46.167Z,27.30
2019-02-26T00:50:39.804Z,27.30
2019-02-26T00:53:33.083Z,27.20
2019-02-26T00:56:29.149Z,27.20
2019-02-26T00:59:19.322Z,27.20
2019-02-26T01:02:11.315Z,27.30
2019-02-26T01:05:04.125Z,27.30
2019-02-26T01:07:57.384Z,27.30
2019-02-26T01:10:49.675Z,27.30
2019-02-26T01:13:42.665Z,27.30
2019-02-26T01:16:34.568Z,27.30
2019-02-26T01:19:26.518Z,27.30
2019-02-26T01:22:18.666Z,27.30
2019-02-26T01:25:12.565Z,27.30
2019-02-26T01:28:04.718Z,27.30
2019-02-26T01:30:57.927Z,27.30
2019-02-26T01:33:50.895Z,27.40
2019-02-26T01:36:47.220Z,27.40
2019-02-26T01:39:42.333Z,27.40
2019-02-26T01:42:32.721Z,27.40
2019-02-26T01:45:27.338Z,27.40
2019-02-26T01:48:19.768Z,27.50
2019-02-26T01:51:12.143Z,27.50
2019-02-26T01:54:05.290Z,27.50
2019-02-26T01:56:58.704Z,27.50
2019-02-26T01:59:52.422Z,27.50
2019-02-26T02:02:44.897Z,27.50
2019-02-26T02:05:37.466Z,27.50
2019-02-26T02:08:30.094Z,27.50
2019-02-26T02:11:23.857Z,27.50
2019-02-26T02:14:17.050Z,27.50
2019-02-26T02:17:10.896Z,27.50
2019-02-26T02:20:07.673Z,27.50
2019-02-26T02:22:58.151Z,27.50
2019-02-26T02:25:50.826Z,27.40
2019-02-26T02:28:46.235Z,27.40
2019-02-26T02:31:40.153Z,27.30
2019-02-26T02:34:32.843Z,27.30
2019-02-26T02:37:26.958Z,27.30
2019-02-26T02:40:20.082Z,27.40
2019-02-26T02:43:15.229Z,27.40
2019-02-26T02:46:05.927Z,27.40
2019-02-26T02:48:57.890Z,27.50
2019-02-26T02:51:50.226Z,27.50
2019-02-26T02:54:44.103Z,27.50
2019-02-26T02:57:36.363Z,27.50
2019-02-26T03:00:30.905Z,27.50
2019-02-26T03:03:23.647Z,27.50
2019-02-26T03:06:16.997Z,27.50
2019-02-26T03:09:17.221Z,27.50
2019-02-26T03:12:08.412Z,27.50
2019-02-26T03:15:02.253Z,27.50
2019-02-26T03:17:54.027Z,27.50
2019-02-26T03:20:46.318Z,27.50
2019-02-26T03:23:41.254Z,27.50
2019-02-26T03:26:31.760Z,27.50
2019-02-26T03:29:24.013Z,27.50
2019-02-26T03:32:16.146Z,27.50
2019-02-26T03:35:10.157Z,27.50
2019-02-26T03:38:03.628Z,27.50
2019-02-26T03:40:58.165Z,27.60
2019-02-26T03:43:48.664Z,27.50
2019-02-26T03:46:41.055Z,27.50
2019-02-26T03:49:34.670Z,27.50
2019-02-26T03:52:28.987Z,27.50
2019-02-26T03:55:20.607Z,27.50
2019-02-26T03:58:12.858Z,27.50
2019-02-26T04:01:08.410Z,27.50
2019-02-26T04:03:59.879Z,27.50
2019-02-26T04:06:55.662Z,27.60
2019-02-26T04:09:49.815Z,27.60
2019-02-26T04:12:42.329Z,27.60
2019-02-26T04:15:36.366Z,27.50
2019-02-26T04:18:34.098Z,27.60
2019-02-26T04:21:23.329Z,27.50
2019-02-26T04:24:19.058Z,27.50
2019-02-26T04:27:33.583Z,27.50
2019-02-26T04:30:39.319Z,27.50
2019-02-26T04:33:49.886Z,27.50
2019-02-26T04:37:04.835Z,27.40
2019-02-26T04:40:22.616Z,27.20
2019-02-26T04:43:51.959Z,27.10
2019-02-26T04:46:47.961Z,27.10
2019-02-26T04:49:42.929Z,27.10
2019-02-26T04:52:37.778Z,27.10
2019-02-26T04:55:31.856Z,27.20
2019-02-26T04:58:22.856Z,27.20
2019-02-26T05:01:16.394Z,27.20
2019-02-26T05:04:09.300Z,27.20
2019-02-26T05:07:05.171Z,27.20
2019-02-26T05:09:59.433Z,27.20
2019-02-26T05:12:57.918Z,27.20
2019-02-26T05:15:53.870Z,27.20
2019-02-26T05:18:51.564Z,27.20
2019-02-26T05:21:45.796Z,27.20
2019-02-26T05:24:44.271Z,27.20
2019-02-26T05:49:09.744Z,27.40
2019-02-26T05:52:02.121Z,27.50
2019-02-26T05:55:48.766Z,27.50
2019-02-26T06:05:33.646Z,27.50
2019-02-26T06:08:33.709Z,27.50
2019-02-26T06:11:33.496Z,27.50
2019-02-26T06:14:30.327Z,27.50
2019-02-26T06:17:28.866Z,27.50
2019-02-26T06:20:45.314Z,27.50
2019-02-26T06:23:46.678Z,27.50
2019-02-26T06:29:58.137Z,27.60
2019-02-26T06:32:52.694Z,27.60
2019-02-26T06:36:04.251Z,27.60
2019-02-26T06:39:01.374Z,27.60
2019-02-26T06:42:09.660Z,27.60
2019-02-26T06:45:16.638Z,27.60
2019-02-26T06:48:24.438Z,27.60
2019-02-26T06:51:26.007Z,27.60
2019-02-26T06:54:22.680Z,27.60
2019-02-26T06:57:22.067Z,27.60
2019-02-26T07:00:29.325Z,27.60
2019-02-26T07:03:24.161Z,27.60
2019-02-26T07:06:20.623Z,27.60
2019-02-26T07:09:20.506Z,27.60
2019-02-26T07:12:20.010Z,27.60
2019-02-26T07:15:15.148Z,27.60
2019-02-26T07:18:14.265Z,27.60
2019-02-26T07:21:29.297Z,27.60
2019-02-26T07:24:33.701Z,27.70
2019-02-26T07:28:03.037Z,27.70
2019-02-26T07:31:02.721Z,27.70
2019-02-26T07:34:06.672Z,27.60
2019-02-26T07:37:11.098Z,27.60
2019-02-26T07:43:54.800Z,27.60
2019-02-26T07:47:08.625Z,27.60
2019-02-26T07:50:31.786Z,27.60
2019-02-26T07:54:02.567Z,27.60
2019-02-26T07:58:57.019Z,27.60
2019-02-26T08:08:40.162Z,27.60
2019-02-26T08:12:08.419Z,27.70
2019-02-26T08:15:46.901Z,27.60
2019-02-26T08:19:17.453Z,27.70
2019-02-26T08:26:09.264Z,27.70
2019-02-26T08:32:48.376Z,27.70
2019-02-26T08:40:40.148Z,27.80
2019-02-26T08:51:19.807Z,27.80
2019-02-26T09:02:46.139Z,27.80
2019-02-26T09:09:30.318Z,27.90
2019-02-26T09:12:26.658Z,27.90
2019-02-26T09:15:33.553Z,27.90
2019-02-26T09:18:28.008Z,27.90
2019-02-26T09:21:23.131Z,27.90
2019-02-26T09:24:17.310Z,27.90
2019-02-26T09:27:10.941Z,27.90
2019-02-26T09:30:05.924Z,28.00
2019-02-26T09:33:00.904Z,28.00
2019-02-26T09:35:56.636Z,27.90
2019-02-26T09:38:49.628Z,28.00
2019-02-26T09:41:45.602Z,28.00
2019-02-26T09:44:44.692Z,28.00
2019-02-26T09:47:49.787Z,28.00
2019-02-26T09:50:46.428Z,28.00
2019-02-26T09:54:01.814Z,28.00
2019-02-26T09:56:52.200Z,27.90
2019-02-26T09:59:49.618Z,28.00
2019-02-26T10:02:49.379Z,28.00
2019-02-26T10:05:41.679Z,28.00
2019-02-26T10:08:34.089Z,28.00
2019-02-26T10:11:41.928Z,28.00
2019-02-26T10:14:38.352Z,28.00
2019-02-26T10:17:34.730Z,28.00
2019-02-26T10:20:31.655Z,28.00
2019-02-26T10:23:28.470Z,28.00
2019-02-26T10:26:26.294Z,28.00
2019-02-26T10:29:26.164Z,28.00
2019-02-26T10:32:20.358Z,28.00
2019-02-26T10:35:25.603Z,28.00
2019-02-26T10:38:16.076Z,28.00
2019-02-26T10:41:08.636Z,28.00
2019-02-26T10:43:49.403Z,28.00
2019-02-26T10:46:48.775Z,28.00
2019-02-26T10:50:10.064Z,28.00
2019-02-26T10:53:09.750Z,28.00
2019-02-26T10:56:01.777Z,28.00
2019-02-26T10:58:58.784Z,28.00
2019-02-26T11:01:52.336Z,28.00
2019-02-26T11:05:26.809Z,28.00
2019-02-26T11:08:24.679Z,28.00
2019-02-26T11:11:19.000Z,28.00
2019-02-26T11:14:15.984Z,28.00
2019-02-26T11:17:08.644Z,28.00
2019-02-26T11:20:04.663Z,28.00
2019-02-26T11:22:59.018Z,28.00
2019-02-26T11:25:51.861Z,28.00
2019-02-26T11:28:45.890Z,27.90
2019-02-26T11:31:39.765Z,28.00
2019-02-26T11:34:33.417Z,28.00
2019-02-26T11:37:27.124Z,28.00
2019-02-26T11:40:22.154Z,28.00
2019-02-26T11:43:15.043Z,28.00
2019-02-26T11:49:34.319Z,28.10
2019-02-26T11:52:51.627Z,28.10
2019-02-26T11:55:41.471Z,28.10
2019-02-26T11:58:37.678Z,28.20
2019-02-26T12:01:36.932Z,28.20
2019-02-26T12:09:16.100Z,28.20
2019-02-26T12:12:34.177Z,28.20
2019-02-26T12:15:56.879Z,28.20
2019-02-26T12:19:03.539Z,28.20
2019-02-26T12:22:37.806Z,28.20
2019-02-26T12:27:16.254Z,28.20
2019-02-26T12:29:08.389Z,28.10
2019-02-26T12:32:01.199Z,28.20
2019-02-26T12:34:55.267Z,28.10
2019-02-26T12:38:26.738Z,28.10
2019-02-26T12:41:21.038Z,28.10
2019-02-26T12:45:13.664Z,28.10
2019-02-26T12:48:19.094Z,28.10
2019-02-26T12:51:12.614Z,28.10
2019-02-26T12:55:32.913Z,28.00
2019-02-26T12:58:24.411Z,28.10
2019-02-26T13:01:53.857Z,28.00
2019-02-26T13:05:06.590Z,28.00
2019-02-26T13:08:16.303Z,28.00
2019-02-26T13:11:07.024Z,28.00
2019-02-26T13:14:03.675Z,28.00
2019-02-26T13:17:29.493Z,28.00
2019-02-26T13:20:21.382Z,28.00
2019-02-26T13:23:17.801Z,27.90
2019-02-26T13:26:14.153Z,27.90
2019-02-26T13:29:06.030Z,27.90
2019-02-26T13:32:00.090Z,27.90
2019-02-26T13:35:07.734Z,27.90
2019-02-26T13:38:14.845Z,27.90
2019-02-26T13:42:03.507Z,27.90
2019-02-26T13:45:17.179Z,27.90
2019-02-26T13:48:11.562Z,27.90
2019-02-26T13:51:06.918Z,27.90
2019-02-26T13:54:00.922Z,27.90
2019-02-26T13:56:54.779Z,27.90
2019-02-26T13:59:49.049Z,28.00
2019-02-26T14:02:41.657Z,28.00
2019-02-26T14:05:38.421Z,28.00
2019-02-26T14:08:30.744Z,28.00
2019-02-26T14:11:24.003Z,28.00
2019-02-26T14:14:17.201Z,28.00
2019-02-26T14:17:09.854Z,28.00
2019-02-26T14:20:03.686Z,28.00
2019-02-26T14:22:56.262Z,28.00
2019-02-26T14:25:48.578Z,27.90
2019-02-26T14:28:40.673Z,27.90
2019-02-26T14:31:33.081Z,27.90
2019-02-26T14:34:25.469Z,27.90
2019-02-26T14:37:19.256Z,27.90
2019-02-26T14:40:12.587Z,27.90
2019-02-26T14:43:04.980Z,27.90
2019-02-26T14:45:59.737Z,27.90
2019-02-26T14:48:54.496Z,27.90
2019-02-26T14:51:47.167Z,27.80
2019-02-26T14:54:39.470Z,27.90
2019-02-26T14:57:32.332Z,27.90
2019-02-26T15:00:26.015Z,27.90
2019-02-26T15:03:18.306Z,27.80
2019-02-26T15:06:11.595Z,27.80
2019-02-26T15:09:04.385Z,27.80
2019-02-26T15:11:58.344Z,27.80
2019-02-26T15:14:50.960Z,27.80
2019-02-26T15:17:43.369Z,27.80
2019-02-26T15:20:36.639Z,27.80
2019-02-26T15:23:29.762Z,27.80
2019-02-26T15:26:25.176Z,27.80
2019-02-26T15:29:17.315Z,27.80
2019-02-26T15:32:09.783Z,27.80
2019-02-26T15:35:02.670Z,27.80
2019-02-26T15:37:56.959Z,27.80
2019-02-26T15:40:51.137Z,27.80
2019-02-26T15:43:44.537Z,27.80
2019-02-26T15:46:37.910Z,27.80
2019-02-26T15:49:30.828Z,27.80
2019-02-26T15:52:24.340Z,27.70
2019-02-26T15:55:19.857Z,27.80
2019-02-26T15:58:13.259Z,27.80
2019-02-26T16:01:12.878Z,27.80
2019-02-26T16:04:05.509Z,27.80
2019-02-26T16:06:59.334Z,27.80
2019-02-26T16:09:52.321Z,27.80
2019-02-26T16:12:46.227Z,27.70
2019-02-26T16:15:41.014Z,27.80
2019-02-26T16:18:34.637Z,27.70
2019-02-26T16:21:28.851Z,27.80
2019-02-26T16:24:21.602Z,27.70
2019-02-26T16:27:15.823Z,27.70
2019-02-26T16:30:09.268Z,27.70
2019-02-26T16:33:02.571Z,27.70
2019-02-26T16:35:57.629Z,27.70
2019-02-26T16:38:51.401Z,27.70
2019-02-26T16:41:44.130Z,27.70
2019-02-26T16:44:37.087Z,27.70
2019-02-26T16:47:30.955Z,27.70
2019-02-26T16:50:26.846Z,27.70
2019-02-26T16:53:20.527Z,27.70
2019-02-26T16:56:12.895Z,27.70
2019-02-26T16:59:07.639Z,27.70
2019-02-26T17:02:01.809Z,27.70
2019-02-26T17:05:01.424Z,27.70
2019-02-26T17:07:55.493Z,27.70
2019-02-26T17:10:48.383Z,27.70
2019-02-26T17:13:43.416Z,27.70
2019-02-26T17:16:34.694Z,27.70
2019-02-26T17:19:28.291Z,27.70
2019-02-26T17:22:20.899Z,27.70
2019-02-26T17:25:13.295Z,27.70
2019-02-26T17:28:09.401Z,27.70
2019-02-26T17:31:01.125Z,27.70
2019-02-26T17:33:54.060Z,27.60
2019-02-26T17:36:46.741Z,27.50
2019-02-26T17:39:39.694Z,27.50
2019-02-26T17:42:32.635Z,27.40
2019-02-26T17:45:25.275Z,27.40
2019-02-26T17:48:18.973Z,27.40
2019-02-26T17:51:12.987Z,27.40
2019-02-26T17:54:05.786Z,27.40
2019-02-26T17:57:00.354Z,27.40
2019-02-26T17:59:52.813Z,27.40
2019-02-26T18:02:45.174Z,27.40
2019-02-26T18:05:50.427Z,27.40
2019-02-26T18:08:31.743Z,27.40
2019-02-26T18:11:24.502Z,27.40
2019-02-26T18:14:20.551Z,27.40
2019-02-26T18:17:13.280Z,27.40
2019-02-26T18:20:06.197Z,27.40
2019-02-26T18:23:00.220Z,27.40
2019-02-26T18:25:53.085Z,27.40
2019-02-26T18:28:47.806Z,27.40
2019-02-26T18:31:40.082Z,27.40
2019-02-26T18:34:33.485Z,27.40
2019-02-26T18:37:25.783Z,27.40
2019-02-26T18:40:18.477Z,27.40
2019-02-26T18:43:11.660Z,27.40
2019-02-26T18:46:04.922Z,27.40
2019-02-26T18:48:57.639Z,27.40
2019-02-26T18:51:49.926Z,27.40
2019-02-26T18:54:42.241Z,27.40
2019-02-26T18:57:34.524Z,27.40
2019-02-26T19:00:27.240Z,27.40
2019-02-26T19:03:19.609Z,27.40
2019-02-26T19:06:12.001Z,27.40
2019-02-26T19:09:04.556Z,27.40
2019-02-26T19:11:57.767Z,27.40
2019-02-26T19:14:50.570Z,27.40
2019-02-26T19:17:43.754Z,27.40
2019-02-26T19:20:36.401Z,27.40
2019-02-26T19:23:31.471Z,27.40
2019-02-26T19:26:23.340Z,27.40
2019-02-26T19:29:16.555Z,27.40
2019-02-26T19:32:09.448Z,27.40
2019-02-26T19:35:02.005Z,27.40
2019-02-26T19:37:56.083Z,27.40
2019-02-26T19:40:49.145Z,27.40
2019-02-26T19:43:42.421Z,27.40
2019-02-26T19:46:34.959Z,27.30
2019-02-26T19:49:27.014Z,27.30
2019-02-26T19:52:20.630Z,27.30
2019-02-26T19:55:15.740Z,27.40
2019-02-26T19:58:09.216Z,27.40
2019-02-26T20:01:01.191Z,27.40
2019-02-26T20:03:53.789Z,27.30
2019-02-26T20:06:46.342Z,27.30
2019-02-26T20:09:41.510Z,27.30
2019-02-26T20:12:33.062Z,27.30
2019-02-26T20:15:25.330Z,27.30
2019-02-26T20:18:20.910Z,27.30
2019-02-26T20:21:11.132Z,27.30
2019-02-26T20:24:03.441Z,27.30
2019-02-26T20:26:55.847Z,27.30
2019-02-26T20:29:48.392Z,27.30
2019-02-26T20:32:40.835Z,27.30
2019-02-26T20:35:33.125Z,27.30
2019-02-26T20:38:35.037Z,27.30
2019-02-26T20:41:24.351Z,27.40
2019-02-26T20:44:16.698Z,27.30
2019-02-26T20:47:09.176Z,27.30
2019-02-26T20:50:01.667Z,27.30
2019-02-26T20:52:55.171Z,27.30
2019-02-26T20:55:52.469Z,27.30
2019-02-26T20:58:44.649Z,27.30
2019-02-26T21:01:35.043Z,27.30
2019-02-26T21:04:27.400Z,27.30
2019-02-26T21:07:21.792Z,27.30
2019-02-26T21:10:15.397Z,27.40
2019-02-26T21:13:07.942Z,27.30
2019-02-26T21:16:00.153Z,27.30
2019-02-26T21:18:52.417Z,27.30
2019-02-26T21:21:48.913Z,27.30
2019-02-26T21:24:38.320Z,27.30
2019-02-26T21:27:30.820Z,27.30
2019-02-26T21:30:24.106Z,27.30
2019-02-26T21:33:16.369Z,27.30
2019-02-26T21:36:08.617Z,27.30
2019-02-26T21:39:00.865Z,27.30
2019-02-26T21:41:56.369Z,27.20
2019-02-26T21:44:47.879Z,27.30
2019-02-26T21:47:39.925Z,27.30
2019-02-26T21:50:32.129Z,27.20
2019-02-26T21:53:24.424Z,27.30
2019-02-26T21:56:16.947Z,27.20
2019-02-26T21:59:09.134Z,27.20
2019-02-26T22:02:01.466Z,27.20
2019-02-26T22:04:56.620Z,27.20
2019-02-26T22:07:51.991Z,27.30
2019-02-26T22:10:42.884Z,27.20
2019-02-26T22:13:36.131Z,27.20
2019-02-26T22:16:28.600Z,27.20
2019-02-26T22:19:21.776Z,27.20
2019-02-26T22:22:14.164Z,27.20
2019-02-26T22:25:09.682Z,27.20
2019-02-26T22:28:00.099Z,27.20
2019-02-26T22:30:55.670Z,27.20
2019-02-26T22:33:46.391Z,27.20
2019-02-26T22:36:38.602Z,27.20
2019-02-26T22:39:30.964Z,27.20
2019-02-26T22:42:23.241Z,27.20
2019-02-26T22:45:16.127Z,27.20
2019-02-26T22:48:13.484Z,27.20
2019-02-26T22:51:02.714Z,27.20
2019-02-26T22:53:55.931Z,27.20
2019-02-26T22:56:48.143Z,27.20
2019-02-26T22:59:40.825Z,27.20
2019-02-26T23:02:35.339Z,27.10
2019-02-26T23:05:27.806Z,27.10
2019-02-26T23:08:23.689Z,27.10
2019-02-26T23:11:20.442Z,27.10
2019-02-26T23:14:13.576Z,27.10
2019-02-26T23:17:08.591Z,27.20
2019-02-26T23:20:01.049Z,27.10
2019-02-26T23:22:53.443Z,27.10
2019-02-26T23:25:45.832Z,27.10
2019-02-26T23:28:38.173Z,27.10
2019-02-26T23:31:32.722Z,27.10
2019-02-26T23:34:24.920Z,27.10
2019-02-26T23:37:20.258Z,27.10
2019-02-26T23:40:12.911Z,27.10
2019-02-26T23:43:05.203Z,27.10
2019-02-26T23:45:57.623Z,27.10
2019-02-26T23:48:49.698Z,27.10
2019-02-26T23:51:41.974Z,27.10
2019-02-26T23:54:34.262Z,27.00
2019-02-26T23:57:26.434Z,27.00
